Time;durP1;ratioP1;P1;durP2;ratioP2;P2;SDS_P1;SDS_P2;PMS_P1;PMS_P2;Temp;Humidity;BMP_temperature;BMP_pressure;BME280_temperature;BME280_humidity;BME280_pressure;Samples;Min_cycle;Max_cycle;Signal;HPM_P1;HPM_P2
2021/07/24 00:00:13;;;;;;;10.75;9.68;;;30.10;71.30;;;;;;5071377;28;20510;-43
2021/07/24 00:02:39;;;;;;;11.10;10.10;;;30.20;71.40;;;;;;5089672;28;20079;-44
2021/07/24 00:05:05;;;;;;;11.07;9.97;;;30.10;71.30;;;;;;5109558;28;20020;-42
2021/07/24 00:07:32;;;;;;;10.55;9.55;;;30.20;71.50;;;;;;5109498;28;20264;-43
2021/07/24 00:09:58;;;;;;;11.20;10.20;;;30.10;71.40;;;;;;5091590;28;20024;-43
2021/07/24 00:12:24;;;;;;;11.52;10.27;;;30.10;71.40;;;;;;5109599;28;20028;-43
2021/07/24 00:14:50;;;;;;;11.30;10.20;;;30.10;71.30;;;;;;5109685;28;20085;-44
2021/07/24 00:17:16;;;;;;;11.63;10.43;;;30.10;71.50;;;;;;5109504;28;20043;-42
2021/07/24 00:19:42;;;;;;;11.57;10.47;;;30.10;71.40;;;;;;5109875;28;20261;-44
2021/07/24 00:22:08;;;;;;;12.05;10.93;;;30.10;71.50;;;;;;5109804;28;20024;-43
2021/07/24 00:24:35;;;;;;;10.93;9.82;;;30.10;71.40;;;;;;5109655;28;20185;-42
2021/07/24 00:27:01;;;;;;;11.03;9.93;;;30.10;71.40;;;;;;5109501;28;20016;-43
2021/07/24 00:29:27;;;;;;;10.88;9.77;;;30.10;71.50;;;;;;5091298;28;20092;-42
2021/07/24 00:31:53;;;;;;;10.73;9.73;;;30.00;71.30;;;;;;5109251;28;20035;-42
2021/07/24 00:34:19;;;;;;;10.37;9.37;;;30.00;71.40;;;;;;5109584;28;20028;-43
2021/07/24 00:36:45;;;;;;;11.27;10.03;;;30.00;72.10;;;;;;5109551;28;20343;-42
2021/07/24 00:39:12;;;;;;;11.07;9.97;;;30.00;71.40;;;;;;5109444;28;20277;-43
2021/07/24 00:41:41;;;;;;;11.18;10.07;;;30.00;71.40;;;;;;5109549;28;20268;-42
2021/07/24 00:44:07;;;;;;;10.50;9.50;;;30.00;71.40;;;;;;5109306;28;20132;-42
2021/07/24 00:46:33;;;;;;;10.45;9.45;;;30.00;71.40;;;;;;5091051;28;20039;-42
2021/07/24 00:49:00;;;;;;;11.82;10.73;;;30.00;71.50;;;;;;5107172;28;20057;-43
2021/07/24 00:51:28;;;;;;;11.15;10.05;;;30.00;71.50;;;;;;5088003;28;20028;-43
2021/07/24 00:53:55;;;;;;;10.57;9.65;;;30.00;71.50;;;;;;5106113;28;20063;-43
2021/07/24 00:56:22;;;;;;;;;;;29.90;71.40;;;;;;5105296;28;20032;-43
2021/07/24 00:58:48;;;;;;;10.40;9.40;;;30.00;71.60;;;;;;5085338;28;19912;-43
2021/07/24 01:01:14;;;;;;;10.80;9.75;;;29.90;71.50;;;;;;5093381;28;20057;-43
2021/07/24 01:03:40;;;;;;;11.07;9.97;;;29.90;71.50;;;;;;5105800;28;20054;-43
2021/07/24 01:06:06;;;;;;;10.60;9.57;;;29.90;71.40;;;;;;5088018;28;20466;-43
2021/07/24 01:08:33;;;;;;;10.55;9.55;;;29.90;71.50;;;;;;5070786;28;20024;-42
2021/07/24 01:11:00;;;;;;;10.38;9.40;;;29.90;71.50;;;;;;5087664;28;20024;-42
2021/07/24 01:13:26;;;;;;;10.32;9.35;;;29.90;71.50;;;;;;5105495;28;20032;-42
2021/07/24 01:15:52;;;;;;;10.60;9.60;;;29.80;71.50;;;;;;5105923;28;20487;-44
2021/07/24 01:18:19;;;;;;;9.88;8.98;;;29.80;71.50;;;;;;5105580;28;20115;-43
2021/07/24 01:20:45;;;;;;;11.02;9.93;;;29.80;71.50;;;;;;5105850;28;20135;-42
2021/07/24 01:23:12;;;;;;;10.18;9.18;;;29.80;71.50;;;;;;5105482;28;20026;-44
2021/07/24 01:25:45;;;;;;;10.82;9.77;;;29.80;71.60;;;;;;5105617;28;20087;-42
2021/07/24 01:28:12;;;;;;;9.85;8.85;;;29.80;71.60;;;;;;5104687;28;20799;-42
2021/07/24 01:30:39;;;;;;;10.20;9.30;;;29.80;71.60;;;;;;5105254;28;20028;-43
2021/07/24 01:33:06;;;;;;;10.02;9.10;;;29.80;71.60;;;;;;5087447;28;20044;-42
2021/07/24 01:35:32;;;;;;;10.32;9.32;;;29.80;71.70;;;;;;5105087;28;20146;-42
2021/07/24 01:37:58;;;;;;;10.70;9.73;;;29.70;71.60;;;;;;5105046;28;20100;-42
2021/07/24 01:40:24;;;;;;;10.27;9.27;;;29.70;71.60;;;;;;5105225;28;20058;-42
2021/07/24 01:42:50;;;;;;;11.03;9.97;;;29.70;71.70;;;;;;5105121;28;20032;-43
2021/07/24 01:45:17;;;;;;;12.13;9.90;;;29.70;71.80;;;;;;5105264;28;20252;-42
2021/07/24 01:47:43;;;;;;;10.40;9.40;;;29.70;71.80;;;;;;5104416;28;20280;-42
2021/07/24 01:52:54;;;;;;;10.73;9.50;;;29.70;71.70;;;;;;5104847;28;20046;-42
2021/07/24 01:55:29;;;;;;;10.43;9.43;;;29.60;71.70;;;;;;5104823;28;20024;-43
2021/07/24 01:57:56;;;;;;;10.73;9.60;;;29.70;71.80;;;;;;5086208;28;20028;-44
2021/07/24 02:00:22;;;;;;;10.75;9.73;;;29.60;71.70;;;;;;5086331;28;20131;-43
2021/07/24 02:02:50;;;;;;;10.57;9.55;;;29.60;71.70;;;;;;5104770;28;20035;-42
2021/07/24 02:05:38;;;;;;;10.43;9.43;;;29.60;71.80;;;;;;5104778;28;20035;-43
2021/07/24 02:08:05;;;;;;;10.68;9.68;;;29.60;71.70;;;;;;5086205;28;20059;-43
2021/07/24 02:10:31;;;;;;;;;;;29.60;71.80;;;;;;5070083;28;20473;-43
2021/07/24 02:12:57;;;;;;;10.00;9.10;;;29.60;71.80;;;;;;5086109;28;19920;-42
2021/07/24 02:15:23;;;;;;;12.10;9.33;;;29.50;71.70;;;;;;5104734;28;20028;-42
2021/07/24 02:17:49;;;;;;;10.52;9.43;;;29.50;71.70;;;;;;5104281;28;20032;-42
2021/07/24 02:20:19;;;;;;;10.63;9.53;;;29.50;71.70;;;;;;5086281;28;20039;-43
2021/07/24 02:22:45;;;;;;;9.90;8.98;;;29.50;71.80;;;;;;5069999;28;20763;-42
2021/07/24 02:25:11;;;;;;;10.43;9.43;;;29.50;71.80;;;;;;5104391;28;20020;-43
2021/07/24 02:27:38;;;;;;;9.80;8.90;;;29.50;71.80;;;;;;5104126;28;20078;-43
2021/07/24 02:30:05;;;;;;;10.63;9.63;;;29.50;71.80;;;;;;5103854;28;20087;-43
2021/07/24 02:32:32;;;;;;;10.15;9.18;;;29.50;71.80;;;;;;5104133;28;20044;-43
2021/07/24 02:34:58;;;;;;;10.90;9.40;;;29.50;71.70;;;;;;5104078;28;20028;-42
2021/07/24 02:37:24;;;;;;;10.30;9.30;;;29.40;71.70;;;;;;5104154;28;20058;-43
2021/07/24 02:39:50;;;;;;;10.63;9.55;;;29.40;71.60;;;;;;5103939;28;20112;-43
2021/07/24 02:42:16;;;;;;;10.67;9.63;;;29.40;71.50;;;;;;5104017;28;20044;-43
2021/07/24 02:44:43;;;;;;;9.93;8.93;;;29.40;71.50;;;;;;5103924;28;20272;-44
2021/07/24 02:47:09;;;;;;;11.60;10.43;;;29.40;71.60;;;;;;5103938;28;20024;-43
2021/07/24 02:49:35;;;;;;;10.07;9.07;;;29.40;71.60;;;;;;5103679;28;20043;-44
2021/07/24 02:52:02;;;;;;;10.13;9.07;;;29.30;71.50;;;;;;5103859;28;20040;-42
2021/07/24 02:54:28;;;;;;;10.37;9.37;;;29.40;71.50;;;;;;5103622;28;20036;-42
2021/07/24 02:56:54;;;;;;;10.77;9.07;;;29.30;71.40;;;;;;5103640;28;20333;-43
2021/07/24 02:59:20;;;;;;;9.98;9.00;;;29.30;71.50;;;;;;5103304;28;20055;-43
2021/07/24 03:01:46;;;;;;;10.30;9.23;;;29.30;71.30;;;;;;5103823;28;20047;-43
2021/07/24 03:04:12;;;;;;;10.40;9.35;;;29.30;71.40;;;;;;5103595;28;20428;-42
2021/07/24 03:06:38;;;;;;;10.00;9.00;;;29.30;71.50;;;;;;5103746;28;20030;-42
2021/07/24 03:09:06;;;;;;;10.10;9.10;;;29.30;71.40;;;;;;5103127;28;20032;-42
2021/07/24 03:11:34;;;;;;;9.88;8.88;;;29.30;71.40;;;;;;5103256;28;20264;-42
2021/07/24 03:14:00;;;;;;;10.13;9.13;;;29.20;71.30;;;;;;5103141;28;20032;-43
2021/07/24 03:16:26;;;;;;;;;;;29.30;71.50;;;;;;5104124;28;20048;-42
2021/07/24 03:18:53;;;;;;;10.30;9.30;;;29.30;71.40;;;;;;5103205;28;19911;-42
2021/07/24 03:21:19;;;;;;;11.20;9.90;;;29.20;71.40;;;;;;5103573;28;20168;-43
2021/07/24 03:23:45;;;;;;;10.73;9.73;;;29.20;71.40;;;;;;5096167;28;20299;-43
2021/07/24 03:26:12;;;;;;;10.60;9.57;;;29.20;71.40;;;;;;5083157;28;20040;-43
2021/07/24 03:28:38;;;;;;;10.17;9.27;;;29.20;71.40;;;;;;5082659;28;20032;-42
2021/07/24 03:31:04;;;;;;;10.57;9.48;;;29.20;71.30;;;;;;5083139;28;20031;-42
2021/07/24 03:33:30;;;;;;;10.82;9.60;;;29.20;71.30;;;;;;5104863;28;20044;-42
2021/07/24 03:35:57;;;;;;;9.98;9.02;;;29.10;71.20;;;;;;5103384;28;20024;-42
2021/07/24 03:38:23;;;;;;;10.55;9.52;;;29.10;71.20;;;;;;5103348;28;20058;-43
2021/07/24 03:40:49;;;;;;;10.00;9.00;;;29.10;71.10;;;;;;5102796;28;20024;-42
2021/07/24 03:43:15;;;;;;;10.10;9.18;;;29.10;71.30;;;;;;5102746;28;20025;-44
2021/07/24 03:45:41;;;;;;;9.50;8.50;;;29.10;71.30;;;;;;5103187;28;20024;-43
2021/07/24 03:48:08;;;;;;;10.10;9.10;;;29.10;71.40;;;;;;5103173;28;20040;-43
2021/07/24 03:50:34;;;;;;;10.68;9.55;;;29.10;71.40;;;;;;5102970;28;20256;-43
2021/07/24 03:53:03;;;;;;;11.17;9.40;;;29.00;71.30;;;;;;5102925;28;20099;-42
2021/07/24 03:55:29;;;;;;;10.02;9.13;;;29.00;71.10;;;;;;5103115;28;20028;-43
2021/07/24 03:57:57;;;;;;;10.63;9.52;;;29.00;71.20;;;;;;5102889;28;20028;-42
2021/07/24 04:00:24;;;;;;;10.65;9.65;;;29.00;71.30;;;;;;5102443;28;20046;-43
2021/07/24 04:02:50;;;;;;;10.13;9.13;;;29.00;71.10;;;;;;5102834;28;20378;-43
2021/07/24 04:05:18;;;;;;;9.85;8.85;;;29.00;71.30;;;;;;5103185;28;20102;-43
2021/07/24 04:07:44;;;;;;;10.48;9.38;;;29.00;71.20;;;;;;5102848;28;20059;-42
2021/07/24 04:10:10;;;;;;;9.90;8.90;;;28.90;71.20;;;;;;5102418;28;20039;-43
2021/07/24 04:12:37;;;;;;;9.73;8.63;;;28.90;71.30;;;;;;5102759;28;20065;-42
2021/07/24 04:15:04;;;;;;;;;;;29.00;71.40;;;;;;5084862;28;20059;-43
2021/07/24 04:17:30;;;;;;;10.70;9.02;;;29.00;71.30;;;;;;5102983;28;20712;-43
2021/07/24 04:19:56;;;;;;;10.50;9.40;;;28.90;71.30;;;;;;5084614;28;20032;-42
2021/07/24 04:22:23;;;;;;;9.85;8.88;;;28.90;71.30;;;;;;5102847;28;20028;-42
2021/07/24 04:24:49;;;;;;;9.73;8.75;;;28.90;71.30;;;;;;5103909;28;20047;-42
2021/07/24 04:27:15;;;;;;;10.85;8.80;;;28.90;71.20;;;;;;5106250;28;20047;-42
2021/07/24 04:29:42;;;;;;;11.63;8.65;;;28.90;71.00;;;;;;5106608;28;20038;-44
2021/07/24 04:32:08;;;;;;;10.57;9.57;;;28.80;71.20;;;;;;5106321;28;20032;-42
2021/07/24 04:34:34;;;;;;;9.15;8.27;;;28.80;71.10;;;;;;5106015;28;20288;-42
2021/07/24 04:37:00;;;;;;;9.68;8.77;;;28.80;70.90;;;;;;5106574;28;20028;-42
2021/07/24 04:39:26;;;;;;;10.33;9.33;;;28.80;71.20;;;;;;5106363;28;20034;-42
2021/07/24 04:41:53;;;;;;;9.77;8.87;;;28.80;71.00;;;;;;5106452;28;20017;-44
2021/07/24 04:44:19;;;;;;;10.03;8.53;;;28.80;71.00;;;;;;5105971;28;20035;-42
2021/07/24 04:46:45;;;;;;;10.70;9.03;;;28.80;71.10;;;;;;5106260;28;20119;-42
2021/07/24 04:49:11;;;;;;;9.20;8.27;;;28.80;71.00;;;;;;5106068;28;20024;-43
2021/07/24 04:51:37;;;;;;;9.98;8.77;;;28.70;70.90;;;;;;5106175;28;20268;-43
2021/07/24 04:54:03;;;;;;;9.40;8.40;;;28.70;71.00;;;;;;5105646;28;20032;-43
2021/07/24 04:56:31;;;;;;;9.75;8.73;;;28.70;71.00;;;;;;5087692;28;20042;-43
2021/07/24 04:58:57;;;;;;;9.88;8.27;;;28.70;71.00;;;;;;5084151;28;20678;-43
2021/07/24 05:01:23;;;;;;;9.57;8.63;;;28.70;71.00;;;;;;5067547;28;20055;-42
2021/07/24 05:03:49;;;;;;;9.70;8.50;;;28.70;71.00;;;;;;5085245;28;20060;-42
2021/07/24 05:06:15;;;;;;;9.87;8.87;;;28.60;70.90;;;;;;5085756;28;20266;-43
2021/07/24 05:08:41;;;;;;;8.97;8.17;;;28.60;71.00;;;;;;5072712;28;20021;-42
2021/07/24 05:11:08;;;;;;;9.70;8.80;;;28.60;71.00;;;;;;5083068;28;20037;-43
2021/07/24 05:13:34;;;;;;;9.52;8.63;;;28.60;71.00;;;;;;5050621;28;20285;-43
2021/07/24 05:16:00;;;;;;;10.00;9.02;;;28.60;70.90;;;;;;5085130;28;20529;-42
2021/07/24 05:18:26;;;;;;;9.40;8.47;;;28.60;71.00;;;;;;5085304;28;20031;-43
2021/07/24 05:20:52;;;;;;;9.30;8.40;;;28.60;70.90;;;;;;5085446;28;20111;-42
2021/07/24 05:23:18;;;;;;;9.37;8.47;;;28.60;70.90;;;;;;5084970;28;20296;-43
2021/07/24 05:25:44;;;;;;;9.63;8.63;;;28.60;70.90;;;;;;5084893;28;20393;-43
2021/07/24 05:28:12;;;;;;;9.83;8.40;;;28.50;70.90;;;;;;5085023;28;20331;-43
2021/07/24 05:30:38;;;;;;;9.52;8.63;;;28.50;70.90;;;;;;5084523;28;20029;-43
2021/07/24 05:33:04;;;;;;;11.37;8.80;;;28.50;70.90;;;;;;5084963;28;20036;-43
2021/07/24 05:35:30;;;;;;;10.10;8.67;;;28.50;70.90;;;;;;5084319;28;20035;-42
2021/07/24 05:37:56;;;;;;;9.27;8.38;;;28.50;70.90;;;;;;5084872;28;20032;-43
2021/07/24 05:40:22;;;;;;;10.70;9.67;;;28.50;71.00;;;;;;5066835;28;20054;-43
2021/07/24 05:42:50;;;;;;;9.77;8.77;;;28.50;70.90;;;;;;5084690;28;20033;-42
2021/07/24 05:45:16;;;;;;;9.18;8.27;;;28.50;70.90;;;;;;5084441;28;20043;-42
2021/07/24 05:47:42;;;;;;;10.17;8.30;;;28.50;70.90;;;;;;5084671;28;20052;-43
2021/07/24 05:50:09;;;;;;;9.50;8.60;;;28.40;70.90;;;;;;5083737;28;20311;-43
2021/07/24 05:52:35;;;;;;;9.45;8.43;;;28.40;71.00;;;;;;5084563;28;20037;-42
2021/07/24 05:55:01;;;;;;;9.45;8.55;;;28.40;70.80;;;;;;5075816;28;20029;-42
2021/07/24 05:57:27;;;;;;;15.67;7.83;;;28.40;70.90;;;;;;5084339;28;20033;-43
2021/07/24 05:59:53;;;;;;;10.00;9.03;;;28.40;70.90;;;;;;5084188;28;20072;-42
2021/07/24 06:02:19;;;;;;;8.97;7.97;;;28.40;70.90;;;;;;5084306;28;20261;-42
2021/07/24 06:04:47;;;;;;;9.63;8.73;;;28.30;70.90;;;;;;5084010;28;20032;-43
2021/07/24 06:07:13;;;;;;;10.02;9.02;;;28.30;70.90;;;;;;5084375;28;20031;-43
2021/07/24 06:09:39;;;;;;;9.57;8.67;;;28.30;70.90;;;;;;5084267;28;20047;-42
2021/07/24 06:12:06;;;;;;;9.77;8.77;;;28.30;70.90;;;;;;5084072;28;20102;-43
2021/07/24 06:14:32;;;;;;;;;;;28.30;71.00;;;;;;5084397;28;20067;-42
2021/07/24 06:16:58;;;;;;;9.57;8.57;;;28.30;71.00;;;;;;5083837;28;19904;-43
2021/07/24 06:19:24;;;;;;;9.32;8.43;;;28.30;71.00;;;;;;5084007;28;20063;-44
2021/07/24 06:21:50;;;;;;;11.63;8.80;;;28.30;71.00;;;;;;5083427;28;20021;-44
2021/07/24 06:24:17;;;;;;;9.60;8.52;;;28.20;70.90;;;;;;5083411;28;20039;-43
2021/07/24 06:26:43;;;;;;;9.40;8.47;;;28.20;71.00;;;;;;5083552;28;20134;-42
2021/07/24 06:29:09;;;;;;;9.27;8.33;;;28.20;71.00;;;;;;5083925;28;20480;-43
2021/07/24 06:31:38;;;;;;;9.48;8.57;;;28.20;71.00;;;;;;5083829;28;20269;-43
2021/07/24 06:34:04;;;;;;;9.57;8.68;;;28.20;71.10;;;;;;5065875;28;20040;-42
2021/07/24 06:36:30;;;;;;;8.85;7.97;;;28.20;71.00;;;;;;5083349;28;20050;-42
2021/07/24 06:38:56;;;;;;;9.53;8.43;;;28.20;71.00;;;;;;5083702;28;20029;-42
2021/07/24 06:41:26;;;;;;;9.32;8.43;;;28.10;71.00;;;;;;5064951;28;20088;-43
2021/07/24 06:43:53;;;;;;;9.13;8.23;;;28.10;70.90;;;;;;5083315;28;20028;-43
2021/07/24 06:46:20;;;;;;;9.82;8.52;;;28.10;70.90;;;;;;5074873;28;20028;-43
2021/07/24 06:48:46;;;;;;;10.23;8.35;;;28.10;70.90;;;;;;5082934;28;20048;-43
2021/07/24 06:51:12;;;;;;;8.67;7.87;;;28.10;70.90;;;;;;5083527;28;20043;-42
2021/07/24 06:53:38;;;;;;;9.80;8.80;;;28.10;71.00;;;;;;5076859;28;20037;-42
2021/07/24 06:56:05;;;;;;;9.87;8.57;;;28.10;71.10;;;;;;5081001;28;20119;-42
2021/07/24 06:58:34;;;;;;;8.98;8.18;;;28.00;71.00;;;;;;5083296;28;20316;-44
2021/07/24 07:01:00;;;;;;;9.77;8.38;;;28.00;70.90;;;;;;5083240;28;20032;-43
2021/07/24 07:03:29;;;;;;;9.02;8.02;;;28.00;71.00;;;;;;5082885;28;20669;-42
2021/07/24 07:05:55;;;;;;;9.80;8.80;;;28.00;71.00;;;;;;5082978;28;20028;-42
2021/07/24 07:08:23;;;;;;;8.97;8.07;;;28.00;71.10;;;;;;5083232;28;20664;-42
2021/07/24 07:10:50;;;;;;;8.93;8.02;;;28.00;71.00;;;;;;5083089;28;20063;-43
2021/07/24 07:13:16;;;;;;;9.43;8.50;;;28.00;70.90;;;;;;5083257;28;20036;-42
2021/07/24 07:15:42;;;;;;;9.10;8.20;;;28.00;71.00;;;;;;5082730;28;20043;-42
2021/07/24 07:18:08;;;;;;;9.98;8.50;;;28.00;71.00;;;;;;5071921;28;20273;-42
2021/07/24 07:20:34;;;;;;;9.05;8.15;;;28.00;71.00;;;;;;5083134;28;20028;-42
2021/07/24 07:23:00;;;;;;;9.27;8.37;;;27.90;70.90;;;;;;5082962;28;20035;-42
2021/07/24 07:25:26;;;;;;;8.53;7.63;;;28.00;71.10;;;;;;5082952;28;20024;-42
2021/07/24 07:27:53;;;;;;;8.93;8.02;;;27.90;71.00;;;;;;5082716;28;20111;-42
2021/07/24 07:30:19;;;;;;;9.03;8.13;;;27.90;71.70;;;;;;5082899;28;20545;-42
2021/07/24 07:32:45;;;;;;;9.25;8.30;;;27.90;71.10;;;;;;5082471;28;20285;-42
2021/07/24 07:35:11;;;;;;;9.93;8.48;;;27.90;71.00;;;;;;5081824;28;20032;-43
2021/07/24 07:38:07;;;;;;;8.63;7.72;;;27.90;71.10;;;;;;5082687;28;20033;-42
2021/07/24 07:40:37;;;;;;;9.50;8.55;;;27.80;71.10;;;;;;5014017;28;20034;-42
2021/07/24 07:43:05;;;;;;;9.25;8.35;;;27.80;71.10;;;;;;5020395;28;20033;-42
2021/07/24 07:45:31;;;;;;;8.95;8.15;;;27.80;71.00;;;;;;5020123;28;20033;-42
2021/07/24 07:47:57;;;;;;;9.13;8.23;;;27.80;71.00;;;;;;5019652;28;20045;-42
2021/07/24 07:50:23;;;;;;;8.97;8.07;;;27.80;71.10;;;;;;5020217;28;20057;-42
2021/07/24 07:52:49;;;;;;;9.73;8.30;;;27.70;71.00;;;;;;5020377;28;20038;-42
2021/07/24 07:55:16;;;;;;;9.93;8.73;;;27.80;71.10;;;;;;5020118;28;20271;-42
2021/07/24 07:57:42;;;;;;;9.63;8.63;;;27.80;71.10;;;;;;5019959;28;20042;-42
2021/07/24 08:00:09;;;;;;;9.57;8.03;;;27.70;71.00;;;;;;5023675;28;20566;-42
2021/07/24 08:02:35;;;;;;;;;;;27.70;71.00;;;;;;5024635;28;20038;-43
2021/07/24 08:05:01;;;;;;;8.73;7.82;;;27.70;71.10;;;;;;5024057;28;19968;-42
2021/07/24 08:07:27;;;;;;;9.23;8.33;;;27.70;71.10;;;;;;5023678;28;20025;-43
2021/07/24 08:09:56;;;;;;;8.90;8.00;;;27.70;71.10;;;;;;5023932;28;20105;-42
2021/07/24 08:12:25;;;;;;;9.85;8.85;;;27.70;71.20;;;;;;5023316;28;20034;-42
2021/07/24 08:14:52;;;;;;;9.32;8.40;;;27.70;71.10;;;;;;5023705;28;20523;-43
2021/07/24 08:17:21;;;;;;;9.07;8.27;;;27.70;71.20;;;;;;5049978;28;20045;-42
2021/07/24 08:19:48;;;;;;;9.30;8.40;;;27.70;71.10;;;;;;5066051;28;20029;-42
2021/07/24 08:22:14;;;;;;;8.93;8.07;;;27.60;71.10;;;;;;5066187;28;20084;-42
2021/07/24 08:24:40;;;;;;;8.68;7.85;;;27.60;71.20;;;;;;5047885;28;20037;-43
2021/07/24 08:27:06;;;;;;;9.23;8.30;;;27.60;71.20;;;;;;5065947;28;20021;-42
2021/07/24 08:29:33;;;;;;;8.90;8.00;;;27.60;71.20;;;;;;5065923;28;20037;-43
2021/07/24 08:31:59;;;;;;;8.57;7.78;;;27.60;71.20;;;;;;5066145;28;20502;-42
2021/07/24 08:34:25;;;;;;;9.07;8.10;;;27.60;71.30;;;;;;5064276;28;20041;-42
2021/07/24 08:36:51;;;;;;;8.97;7.70;;;27.60;71.20;;;;;;5065758;28;20604;-42
2021/07/24 08:39:17;;;;;;;9.10;8.20;;;27.50;71.20;;;;;;5065880;28;20040;-42
2021/07/24 08:41:43;;;;;;;9.10;8.07;;;27.50;71.20;;;;;;5065960;28;20435;-42
2021/07/24 08:44:12;;;;;;;9.37;8.47;;;27.50;71.20;;;;;;5065687;28;20032;-42
2021/07/24 08:46:38;;;;;;;8.73;7.82;;;27.50;71.20;;;;;;5065912;28;20021;-43
2021/07/24 08:49:04;;;;;;;9.77;8.77;;;27.50;71.20;;;;;;5065413;28;20025;-42
2021/07/24 08:51:36;;;;;;;9.03;8.20;;;27.50;71.20;;;;;;5065705;28;20263;-42
2021/07/24 08:54:03;;;;;;;8.40;7.57;;;27.50;71.30;;;;;;5065166;28;20040;-42
2021/07/24 08:56:31;;;;;;;9.20;8.32;;;27.50;71.30;;;;;;5065730;28;20048;-42
2021/07/24 08:58:59;;;;;;;9.20;8.15;;;27.50;71.30;;;;;;5070008;28;20048;-42
2021/07/24 09:01:25;;;;;;;9.07;8.18;;;27.50;71.30;;;;;;5067615;28;20040;-42
2021/07/24 09:03:52;;;;;;;8.90;8.00;;;27.50;71.30;;;;;;5067363;28;20378;-42
2021/07/24 09:06:21;;;;;;;8.73;7.83;;;27.50;71.30;;;;;;5067384;28;20136;-43
2021/07/24 09:08:52;;;;;;;9.15;7.63;;;27.40;71.30;;;;;;5085445;28;20040;-42
2021/07/24 09:11:19;;;;;;;8.20;7.40;;;27.40;71.30;;;;;;5084412;28;20033;-42
2021/07/24 09:13:45;;;;;;;9.18;7.97;;;27.40;71.30;;;;;;5085360;28;20032;-42
2021/07/24 09:16:11;;;;;;;10.15;8.27;;;27.40;71.30;;;;;;5084993;28;20056;-42
2021/07/24 09:18:38;;;;;;;8.70;7.90;;;27.30;71.20;;;;;;5084820;28;20032;-43
2021/07/24 09:21:05;;;;;;;8.75;7.88;;;27.30;71.20;;;;;;5085382;28;20025;-44
2021/07/24 09:23:33;;;;;;;9.80;8.27;;;27.40;71.30;;;;;;5066853;28;20036;-42
2021/07/24 09:26:00;;;;;;;8.90;7.82;;;27.40;71.40;;;;;;5065103;28;20358;-42
2021/07/24 09:28:26;;;;;;;9.10;8.10;;;27.30;71.20;;;;;;5064803;28;20029;-42
2021/07/24 09:30:52;;;;;;;9.53;8.50;;;27.30;71.30;;;;;;5064737;28;20386;-42
2021/07/24 09:33:22;;;;;;;9.87;7.97;;;27.30;71.40;;;;;;5051676;28;20036;-42
2021/07/24 09:35:54;;;;;;;9.75;8.77;;;27.30;71.30;;;;;;5084948;28;20032;-43
2021/07/24 09:38:32;;;;;;;9.65;8.65;;;27.30;71.40;;;;;;5084436;28;20673;-42
2021/07/24 09:41:00;;;;;;;9.75;8.20;;;27.30;71.40;;;;;;5067449;28;20071;-42
2021/07/24 09:43:39;;;;;;;9.15;8.25;;;27.30;71.40;;;;;;5084521;28;20036;-42
2021/07/24 09:46:13;;;;;;;9.13;8.23;;;27.20;71.40;;;;;;5084699;28;20040;-42
2021/07/24 09:48:46;;;;;;;9.57;8.55;;;27.20;71.50;;;;;;5084346;28;20025;-43
2021/07/24 09:51:16;;;;;;;8.75;7.95;;;27.20;71.40;;;;;;5066398;28;20032;-42
2021/07/24 09:53:45;;;;;;;9.48;8.27;;;27.20;71.40;;;;;;5084037;28;20063;-42
2021/07/24 09:56:16;;;;;;;9.35;8.32;;;27.20;71.40;;;;;;5083993;28;20051;-42
2021/07/24 09:58:43;;;;;;;9.70;8.65;;;27.20;71.40;;;;;;5084110;28;20130;-42
2021/07/24 10:01:11;;;;;;;9.02;8.10;;;27.10;71.40;;;;;;5084388;28;20025;-42
2021/07/24 10:03:39;;;;;;;8.90;8.00;;;27.10;71.40;;;;;;5084039;28;20032;-43
2021/07/24 10:06:23;;;;;;;8.52;7.65;;;27.20;71.50;;;;;;5084486;28;20081;-42
2021/07/24 10:08:49;;;;;;;9.40;8.50;;;27.10;71.50;;;;;;5083816;28;20032;-42
2021/07/24 10:11:16;;;;;;;8.52;7.60;;;27.10;71.50;;;;;;5049316;28;20071;-42
2021/07/24 10:13:43;;;;;;;;;;;27.10;71.50;;;;;;5084487;28;20037;-42
2021/07/24 10:16:09;;;;;;;9.15;7.95;;;27.10;71.50;;;;;;5065640;28;19908;-43
2021/07/24 10:18:35;;;;;;;9.37;8.33;;;27.10;71.50;;;;;;5084061;28;20109;-42
2021/07/24 10:21:02;;;;;;;8.93;8.13;;;27.10;71.50;;;;;;5065869;28;20028;-42
2021/07/24 10:23:28;;;;;;;9.52;7.90;;;27.10;71.60;;;;;;5083325;28;20324;-42
2021/07/24 10:26:11;;;;;;;8.90;8.00;;;27.00;71.50;;;;;;5079008;28;20029;-42
2021/07/24 10:29:04;;;;;;;9.20;8.30;;;27.10;71.60;;;;;;5065407;28;20036;-42
2021/07/24 10:31:36;;;;;;;8.82;7.85;;;27.00;71.50;;;;;;5083570;28;20025;-42
2021/07/24 10:34:03;;;;;;;8.88;8.02;;;27.00;71.50;;;;;;5065534;28;20036;-42
2021/07/24 10:36:42;;;;;;;9.65;8.75;;;27.00;71.50;;;;;;5065895;28;20012;-42
2021/07/24 10:39:11;;;;;;;9.07;8.25;;;27.00;71.50;;;;;;5083388;28;20056;-42
2021/07/24 10:41:40;;;;;;;8.68;7.85;;;27.00;71.50;;;;;;5065652;28;20050;-42
2021/07/24 10:44:09;;;;;;;9.98;7.97;;;27.00;71.60;;;;;;5083461;28;20029;-42
2021/07/24 10:47:02;;;;;;;9.18;8.27;;;27.00;71.60;;;;;;5083338;28;20059;-42
2021/07/24 10:49:34;;;;;;;8.25;7.45;;;27.00;71.60;;;;;;5072243;28;20092;-42
2021/07/24 10:52:01;;;;;;;9.65;8.68;;;26.90;71.60;;;;;;5083240;28;20112;-42
2021/07/24 10:54:30;;;;;;;;;;;26.90;71.50;;;;;;5083623;28;20052;-42
2021/07/24 10:56:56;;;;;;;9.23;7.88;;;26.90;71.60;;;;;;5048834;28;19904;-42
2021/07/24 10:59:29;;;;;;;9.98;8.32;;;26.90;71.70;;;;;;5082863;28;20045;-42
2021/07/24 11:01:56;;;;;;;9.13;8.23;;;26.90;71.70;;;;;;5083355;28;20453;-42
2021/07/24 11:04:37;;;;;;;8.57;7.78;;;26.90;71.70;;;;;;5081477;28;20061;-42
2021/07/24 11:07:16;;;;;;;8.73;7.90;;;26.90;71.70;;;;;;5083323;28;20103;-42
2021/07/24 11:09:47;;;;;;;9.85;8.45;;;26.90;71.70;;;;;;5083016;28;20092;-42
2021/07/24 11:12:16;;;;;;;9.05;7.78;;;26.80;71.60;;;;;;5082832;28;20036;-42
2021/07/24 11:14:49;;;;;;;9.55;8.10;;;26.80;71.70;;;;;;5082958;28;20067;-42
2021/07/24 11:17:16;;;;;;;8.73;7.93;;;26.80;71.60;;;;;;5083165;28;20127;-42
2021/07/24 11:19:44;;;;;;;9.63;8.20;;;26.80;71.70;;;;;;5082415;28;20385;-42
2021/07/24 11:22:20;;;;;;;9.20;8.30;;;26.80;71.60;;;;;;5082777;28;20028;-42
2021/07/24 11:24:52;;;;;;;8.65;7.72;;;26.80;71.70;;;;;;5066121;28;20050;-42
2021/07/24 11:27:28;;;;;;;8.90;8.00;;;26.80;71.70;;;;;;5083024;28;20024;-42
2021/07/24 11:29:54;;;;;;;9.07;8.15;;;26.80;71.80;;;;;;5082403;28;20036;-42
2021/07/24 11:32:27;;;;;;;9.00;8.10;;;26.80;71.70;;;;;;5082826;28;20082;-43
2021/07/24 11:35:00;;;;;;;9.43;8.43;;;26.80;71.80;;;;;;5064394;28;20029;-41
2021/07/24 11:37:49;;;;;;;8.98;7.68;;;26.70;71.70;;;;;;5082970;28;20029;-42
2021/07/24 11:40:19;;;;;;;9.40;8.48;;;26.70;71.70;;;;;;5082595;28;20036;-42
2021/07/24 11:42:58;;;;;;;8.40;7.40;;;26.70;71.70;;;;;;5079798;28;20115;-42
2021/07/24 11:45:25;;;;;;;9.07;8.18;;;26.70;71.70;;;;;;5075042;28;20033;-42
2021/07/24 11:48:12;;;;;;;8.85;8.00;;;26.70;72.50;;;;;;5064498;28;20043;-42
2021/07/24 11:50:39;;;;;;;8.55;7.65;;;26.70;71.80;;;;;;5082452;28;20088;-42
2021/07/24 11:53:05;;;;;;;9.65;8.30;;;26.70;71.70;;;;;;5064438;28;20036;-42
2021/07/24 11:55:33;;;;;;;8.93;8.03;;;26.70;71.80;;;;;;5082696;28;20025;-42
2021/07/24 11:58:02;;;;;;;8.90;8.10;;;26.70;71.80;;;;;;5082721;28;20356;-42
2021/07/24 12:00:38;;;;;;;8.77;7.95;;;26.70;71.90;;;;;;5076316;28;20041;-42
2021/07/24 12:03:19;;;;;;;8.65;7.85;;;26.70;71.90;;;;;;5080283;28;20024;-42
2021/07/24 12:05:46;;;;;;;9.25;8.35;;;26.70;71.90;;;;;;5082163;28;20033;-42
2021/07/24 12:08:12;;;;;;;;;;;26.70;72.00;;;;;;5064588;28;20394;-42
2021/07/24 12:10:46;;;;;;;8.45;7.55;;;26.70;71.90;;;;;;5064416;28;19904;-42
2021/07/24 12:13:12;;;;;;;9.93;8.18;;;26.70;71.90;;;;;;5064178;28;20549;-42
2021/07/24 12:16:05;;;;;;;8.63;7.83;;;26.60;71.80;;;;;;5044111;28;20048;-42
2021/07/24 12:18:48;;;;;;;8.75;7.85;;;26.60;71.90;;;;;;5053724;28;20313;-42
2021/07/24 12:21:16;;;;;;;8.95;8.05;;;26.60;72.00;;;;;;5062082;28;20025;-42
2021/07/24 12:23:58;;;;;;;9.07;8.18;;;26.60;71.90;;;;;;5069030;28;20056;-43
2021/07/24 12:26:28;;;;;;;8.98;8.07;;;26.60;71.90;;;;;;5081559;28;20469;-43
2021/07/24 12:28:57;;;;;;;8.73;7.93;;;26.60;71.90;;;;;;5082244;28;20024;-42
2021/07/24 12:31:31;;;;;;;8.52;7.72;;;26.60;71.90;;;;;;5081951;28;20020;-43
2021/07/24 12:34:01;;;;;;;9.15;8.23;;;26.60;72.00;;;;;;5072259;28;20191;-43
2021/07/24 12:36:30;;;;;;;9.18;8.27;;;26.60;72.00;;;;;;5082095;28;20033;-42
2021/07/24 12:38:56;;;;;;;8.43;7.57;;;26.60;72.00;;;;;;5076629;28;20025;-42
2021/07/24 12:41:35;;;;;;;8.77;7.88;;;26.60;71.90;;;;;;5043926;28;20025;-42
2021/07/24 12:44:08;;;;;;;8.88;7.72;;;26.60;72.00;;;;;;5064808;28;20032;-42
2021/07/24 12:46:36;;;;;;;8.88;7.97;;;26.60;72.00;;;;;;5084559;28;20092;-42
2021/07/24 12:49:03;;;;;;;9.25;8.10;;;26.60;72.00;;;;;;5085561;28;20032;-42
2021/07/24 12:51:41;;;;;;;;;;;26.60;72.00;;;;;;5085793;28;20039;-43